sensor_id;sensor_type;location;lat;lon;timestamp;P1;P2;P0
68713;PMS7003;55690;51.566;19.198;2023-05-14T00:01:52;25;19;13
68713;PMS7003;55690;51.566;19.198;2023-05-14T00:05:58;17;15;11
68713;PMS7003;55690;51.566;19.198;2023-05-14T00:10:04;37;24;15
68713;PMS7003;55690;51.566;19.198;2023-05-14T00:14:10;22;17;13
68713;PMS7003;55690;51.566;19.198;2023-05-14T00:18:16;23;23;15
68713;PMS7003;55690;51.566;19.198;2023-05-14T00:22:22;14;13;10
68713;PMS7003;55690;51.566;19.198;2023-05-14T00:26:29;23;23;18
68713;PMS7003;55690;51.566;19.198;2023-05-14T00:30:35;27;20;14
68713;PMS7003;55690;51.566;19.198;2023-05-14T00:34:41;27;23;17
68713;PMS7003;55690;51.566;19.198;2023-05-14T00:38:47;28;23;16
68713;PMS7003;55690;51.566;19.198;2023-05-14T00:42:54;20;19;14
68713;PMS7003;55690;51.566;19.198;2023-05-14T00:47:00;25;22;15
68713;PMS7003;55690;51.566;19.198;2023-05-14T00:51:06;18;16;12
68713;PMS7003;55690;51.566;19.198;2023-05-14T00:55:12;21;19;12
68713;PMS7003;55690;51.566;19.198;2023-05-14T00:59:18;13;10;8
68713;PMS7003;55690;51.566;19.198;2023-05-14T01:03:24;19;14;13
68713;PMS7003;55690;51.566;19.198;2023-05-14T01:07:39;13;12;9
68713;PMS7003;55690;51.566;19.198;2023-05-14T01:11:52;23;16;11
68713;PMS7003;55690;51.566;19.198;2023-05-14T01:15:59;17;17;13
68713;PMS7003;55690;51.566;19.198;2023-05-14T01:20:04;22;18;12
68713;PMS7003;55690;51.566;19.198;2023-05-14T01:24:07;14;14;10
68713;PMS7003;55690;51.566;19.198;2023-05-14T01:32:18;19;19;14
68713;PMS7003;55690;51.566;19.198;2023-05-14T01:36:24;31;21;16
68713;PMS7003;55690;51.566;19.198;2023-05-14T01:40:27;16;16;13
68713;PMS7003;55690;51.566;19.198;2023-05-14T01:44:31;13;12;10
68713;PMS7003;55690;51.566;19.198;2023-05-14T01:48:33;25;17;12
68713;PMS7003;55690;51.566;19.198;2023-05-14T01:52:39;17;16;12
68713;PMS7003;55690;51.566;19.198;2023-05-14T01:56:45;16;13;10
68713;PMS7003;55690;51.566;19.198;2023-05-14T02:00:52;21;18;16
68713;PMS7003;55690;51.566;19.198;2023-05-14T02:04:58;10;7;2
68713;PMS7003;55690;51.566;19.198;2023-05-14T02:09:04;24;20;15
68713;PMS7003;55690;51.566;19.198;2023-05-14T02:13:10;32;24;16
68713;PMS7003;55690;51.566;19.198;2023-05-14T02:17:16;24;19;13
68713;PMS7003;55690;51.566;19.198;2023-05-14T02:21:23;17;15;12
68713;PMS7003;55690;51.566;19.198;2023-05-14T02:25:29;18;16;11
68713;PMS7003;55690;51.566;19.198;2023-05-14T02:29:35;19;19;14
68713;PMS7003;55690;51.566;19.198;2023-05-14T02:33:41;23;17;14
68713;PMS7003;55690;51.566;19.198;2023-05-14T02:37:47;21;19;13
68713;PMS7003;55690;51.566;19.198;2023-05-14T02:41:53;20;14;11
68713;PMS7003;55690;51.566;19.198;2023-05-14T02:46:00;31;22;13
68713;PMS7003;55690;51.566;19.198;2023-05-14T02:50:06;26;17;15
68713;PMS7003;55690;51.566;19.198;2023-05-14T02:54:12;27;21;16
68713;PMS7003;55690;51.566;19.198;2023-05-14T02:58:18;17;15;12
68713;PMS7003;55690;51.566;19.198;2023-05-14T03:02:24;23;23;17
68713;PMS7003;55690;51.566;19.198;2023-05-14T03:06:31;18;13;11
68713;PMS7003;55690;51.566;19.198;2023-05-14T03:10:37;21;21;16
68713;PMS7003;55690;51.566;19.198;2023-05-14T03:14:43;18;16;14
68713;PMS7003;55690;51.566;19.198;2023-05-14T03:18:49;19;18;13
68713;PMS7003;55690;51.566;19.198;2023-05-14T03:22:55;27;15;12
68713;PMS7003;55690;51.566;19.198;2023-05-14T03:27:02;19;17;14
68713;PMS7003;55690;51.566;19.198;2023-05-14T03:31:08;21;18;12
68713;PMS7003;55690;51.566;19.198;2023-05-14T03:35:14;24;19;12
68713;PMS7003;55690;51.566;19.198;2023-05-14T03:39:20;17;15;12
68713;PMS7003;55690;51.566;19.198;2023-05-14T03:43:26;20;14;9
68713;PMS7003;55690;51.566;19.198;2023-05-14T03:47:32;24;19;13
68713;PMS7003;55690;51.566;19.198;2023-05-14T03:51:39;19;18;10
68713;PMS7003;55690;51.566;19.198;2023-05-14T03:55:45;17;15;13
68713;PMS7003;55690;51.566;19.198;2023-05-14T03:59:51;17;17;14
68713;PMS7003;55690;51.566;19.198;2023-05-14T04:03:57;26;21;15
68713;PMS7003;55690;51.566;19.198;2023-05-14T04:08:03;31;24;15
68713;PMS7003;55690;51.566;19.198;2023-05-14T04:12:09;23;18;14
68713;PMS7003;55690;51.566;19.198;2023-05-14T04:16:16;21;21;16
68713;PMS7003;55690;51.566;19.198;2023-05-14T04:20:22;15;11;10
68713;PMS7003;55690;51.566;19.198;2023-05-14T04:24:28;20;18;15
68713;PMS7003;55690;51.566;19.198;2023-05-14T04:28:34;18;13;11
68713;PMS7003;55690;51.566;19.198;2023-05-14T04:32:40;13;13;9
68713;PMS7003;55690;51.566;19.198;2023-05-14T04:36:46;15;13;10
68713;PMS7003;55690;51.566;19.198;2023-05-14T04:40:53;17;17;13
68713;PMS7003;55690;51.566;19.198;2023-05-14T04:44:59;30;17;11
68713;PMS7003;55690;51.566;19.198;2023-05-14T04:49:05;22;21;16
68713;PMS7003;55690;51.566;19.198;2023-05-14T04:53:11;23;21;16
68713;PMS7003;55690;51.566;19.198;2023-05-14T04:57:17;24;11;7
68713;PMS7003;55690;51.566;19.198;2023-05-14T05:01:24;30;17;13
68713;PMS7003;55690;51.566;19.198;2023-05-14T05:05:30;16;16;10
68713;PMS7003;55690;51.566;19.198;2023-05-14T05:09:36;24;15;13
68713;PMS7003;55690;51.566;19.198;2023-05-14T05:13:42;17;13;11
68713;PMS7003;55690;51.566;19.198;2023-05-14T05:17:48;19;14;13
68713;PMS7003;55690;51.566;19.198;2023-05-14T05:21:55;35;27;17
68713;PMS7003;55690;51.566;19.198;2023-05-14T05:26:01;21;21;13
68713;PMS7003;55690;51.566;19.198;2023-05-14T05:30:07;19;18;13
68713;PMS7003;55690;51.566;19.198;2023-05-14T05:34:13;19;16;12
68713;PMS7003;55690;51.566;19.198;2023-05-14T05:38:19;21;14;11
68713;PMS7003;55690;51.566;19.198;2023-05-14T05:42:25;16;14;10
68713;PMS7003;55690;51.566;19.198;2023-05-14T05:46:31;44;25;18
68713;PMS7003;55690;51.566;19.198;2023-05-14T05:50:38;10;8;7
68713;PMS7003;55690;51.566;19.198;2023-05-14T05:54:44;22;14;12
68713;PMS7003;55690;51.566;19.198;2023-05-14T05:58:50;22;18;13
68713;PMS7003;55690;51.566;19.198;2023-05-14T06:02:56;19;13;12
68713;PMS7003;55690;51.566;19.198;2023-05-14T06:07:02;12;12;11
68713;PMS7003;55690;51.566;19.198;2023-05-14T06:15:17;30;16;13
68713;PMS7003;55690;51.566;19.198;2023-05-14T06:19:21;20;17;13
68713;PMS7003;55690;51.566;19.198;2023-05-14T06:23:28;19;12;10
68713;PMS7003;55690;51.566;19.198;2023-05-14T06:27:33;27;17;10
68713;PMS7003;55690;51.566;19.198;2023-05-14T06:31:39;11;10;8
68713;PMS7003;55690;51.566;19.198;2023-05-14T06:35:46;18;12;10
68713;PMS7003;55690;51.566;19.198;2023-05-14T06:39:52;4;0;0
68713;PMS7003;55690;51.566;19.198;2023-05-14T06:43:58;14;13;9
68713;PMS7003;55690;51.566;19.198;2023-05-14T06:48:04;18;12;11
68713;PMS7003;55690;51.566;19.198;2023-05-14T06:52:10;8;6;5
68713;PMS7003;55690;51.566;19.198;2023-05-14T06:56:16;25;16;12
68713;PMS7003;55690;51.566;19.198;2023-05-14T07:00:23;20;9;8
68713;PMS7003;55690;51.566;19.198;2023-05-14T07:04:29;7;7;6
68713;PMS7003;55690;51.566;19.198;2023-05-14T07:08:35;6;6;5
68713;PMS7003;55690;51.566;19.198;2023-05-14T07:12:41;5;5;4
68713;PMS7003;55690;51.566;19.198;2023-05-14T07:16:47;11;11;9
68713;PMS7003;55690;51.566;19.198;2023-05-14T07:20:53;8;8;5
68713;PMS7003;55690;51.566;19.198;2023-05-14T07:25:00;10;5;4
68713;PMS7003;55690;51.566;19.198;2023-05-14T07:29:06;10;9;9
68713;PMS7003;55690;51.566;19.198;2023-05-14T07:33:12;8;7;6
68713;PMS7003;55690;51.566;19.198;2023-05-14T07:37:18;13;9;7
68713;PMS7003;55690;51.566;19.198;2023-05-14T07:41:24;12;10;9
68713;PMS7003;55690;51.566;19.198;2023-05-14T07:45:30;9;9;8
68713;PMS7003;55690;51.566;19.198;2023-05-14T07:49:37;5;5;4
68713;PMS7003;55690;51.566;19.198;2023-05-14T07:53:43;12;12;10
68713;PMS7003;55690;51.566;19.198;2023-05-14T07:57:49;12;8;6
68713;PMS7003;55690;51.566;19.198;2023-05-14T08:01:55;9;9;7
68713;PMS7003;55690;51.566;19.198;2023-05-14T08:06:01;7;7;6
68713;PMS7003;55690;51.566;19.198;2023-05-14T08:10:08;3;3;3
68713;PMS7003;55690;51.566;19.198;2023-05-14T08:14:14;3;3;2
68713;PMS7003;55690;51.566;19.198;2023-05-14T08:18:20;7;7;6
68713;PMS7003;55690;51.566;19.198;2023-05-14T08:22:26;10;10;8
68713;PMS7003;55690;51.566;19.198;2023-05-14T08:26:32;4;4;4
68713;PMS7003;55690;51.566;19.198;2023-05-14T08:30:38;2;2;1
68713;PMS7003;55690;51.566;19.198;2023-05-14T08:34:44;12;11;9
68713;PMS7003;55690;51.566;19.198;2023-05-14T08:38:50;9;7;6
68713;PMS7003;55690;51.566;19.198;2023-05-14T08:42:57;7;7;7
68713;PMS7003;55690;51.566;19.198;2023-05-14T08:47:04;14;11;9
68713;PMS7003;55690;51.566;19.198;2023-05-14T08:51:09;7;5;4
68713;PMS7003;55690;51.566;19.198;2023-05-14T08:55:15;4;4;3
68713;PMS7003;55690;51.566;19.198;2023-05-14T08:59:21;6;6;5
68713;PMS7003;55690;51.566;19.198;2023-05-14T09:03:28;5;5;5
68713;PMS7003;55690;51.566;19.198;2023-05-14T09:07:34;4;4;4
68713;PMS7003;55690;51.566;19.198;2023-05-14T09:11:40;4;4;4
68713;PMS7003;55690;51.566;19.198;2023-05-14T09:15:46;5;4;4
68713;PMS7003;55690;51.566;19.198;2023-05-14T09:19:52;6;6;5
68713;PMS7003;55690;51.566;19.198;2023-05-14T09:23:58;6;6;5
68713;PMS7003;55690;51.566;19.198;2023-05-14T09:28:05;7;7;7
68713;PMS7003;55690;51.566;19.198;2023-05-14T09:32:11;7;6;5
68713;PMS7003;55690;51.566;19.198;2023-05-14T09:36:17;4;4;3
68713;PMS7003;55690;51.566;19.198;2023-05-14T09:40:23;5;5;4
68713;PMS7003;55690;51.566;19.198;2023-05-14T09:44:29;3;3;3
68713;PMS7003;55690;51.566;19.198;2023-05-14T09:48:35;2;2;2
68713;PMS7003;55690;51.566;19.198;2023-05-14T09:52:41;3;3;3
68713;PMS7003;55690;51.566;19.198;2023-05-14T09:56:48;2;2;2
68713;PMS7003;55690;51.566;19.198;2023-05-14T10:00:54;6;6;5
68713;PMS7003;55690;51.566;19.198;2023-05-14T10:05:00;3;3;3
68713;PMS7003;55690;51.566;19.198;2023-05-14T10:09:10;3;3;3
68713;PMS7003;55690;51.566;19.198;2023-05-14T10:13:13;5;5;5
68713;PMS7003;55690;51.566;19.198;2023-05-14T10:17:20;3;3;3
68713;PMS7003;55690;51.566;19.198;2023-05-14T10:21:25;2;2;2
68713;PMS7003;55690;51.566;19.198;2023-05-14T10:25:31;3;3;3
68713;PMS7003;55690;51.566;19.198;2023-05-14T10:29:37;2;2;2
68713;PMS7003;55690;51.566;19.198;2023-05-14T10:33:47;3;2;2
68713;PMS7003;55690;51.566;19.198;2023-05-14T10:37:50;1;1;1
68713;PMS7003;55690;51.566;19.198;2023-05-14T10:41:55;3;3;3
68713;PMS7003;55690;51.566;19.198;2023-05-14T10:46:01;2;2;2
68713;PMS7003;55690;51.566;19.198;2023-05-14T10:50:09;2;2;2
68713;PMS7003;55690;51.566;19.198;2023-05-14T10:54:15;2;1;1
68713;PMS7003;55690;51.566;19.198;2023-05-14T10:58:20;1;1;0
68713;PMS7003;55690;51.566;19.198;2023-05-14T11:06:37;0;0;0
68713;PMS7003;55690;51.566;19.198;2023-05-14T11:10:44;1;1;1
68713;PMS7003;55690;51.566;19.198;2023-05-14T11:14:46;2;2;2
68713;PMS7003;55690;51.566;19.198;2023-05-14T11:23:03;1;1;1
68713;PMS7003;55690;51.566;19.198;2023-05-14T11:27:07;2;2;2
68713;PMS7003;55690;51.566;19.198;2023-05-14T11:31:10;1;1;1
68713;PMS7003;55690;51.566;19.198;2023-05-14T11:35:16;2;2;2
68713;PMS7003;55690;51.566;19.198;2023-05-14T11:39:22;2;2;1
68713;PMS7003;55690;51.566;19.198;2023-05-14T11:43:28;5;4;4
68713;PMS7003;55690;51.566;19.198;2023-05-14T11:47:34;0;0;0
68713;PMS7003;55690;51.566;19.198;2023-05-14T11:51:41;2;2;1
68713;PMS7003;55690;51.566;19.198;2023-05-14T11:55:46;6;1;1
68713;PMS7003;55690;51.566;19.198;2023-05-14T11:59:55;3;3;3
68713;PMS7003;55690;51.566;19.198;2023-05-14T12:04:00;1;1;1
68713;PMS7003;55690;51.566;19.198;2023-05-14T12:12:19;2;2;1
68713;PMS7003;55690;51.566;19.198;2023-05-14T12:16:22;0;0;0
68713;PMS7003;55690;51.566;19.198;2023-05-14T12:20:24;1;1;1
68713;PMS7003;55690;51.566;19.198;2023-05-14T12:24:30;3;3;3
68713;PMS7003;55690;51.566;19.198;2023-05-14T12:28:37;3;3;2
68713;PMS7003;55690;51.566;19.198;2023-05-14T12:32:44;2;2;2
68713;PMS7003;55690;51.566;19.198;2023-05-14T12:36:48;3;3;2
68713;PMS7003;55690;51.566;19.198;2023-05-14T12:40:54;2;2;1
68713;PMS7003;55690;51.566;19.198;2023-05-14T12:45:00;2;2;2
68713;PMS7003;55690;51.566;19.198;2023-05-14T12:49:07;2;2;2
68713;PMS7003;55690;51.566;19.198;2023-05-14T12:53:12;1;1;1
68713;PMS7003;55690;51.566;19.198;2023-05-14T12:57:19;0;0;0
68713;PMS7003;55690;51.566;19.198;2023-05-14T13:01:25;3;3;2
68713;PMS7003;55690;51.566;19.198;2023-05-14T13:05:31;4;2;2
68713;PMS7003;55690;51.566;19.198;2023-05-14T13:09:37;1;1;1
68713;PMS7003;55690;51.566;19.198;2023-05-14T13:13:43;3;1;1
68713;PMS7003;55690;51.566;19.198;2023-05-14T13:17:49;1;1;1
68713;PMS7003;55690;51.566;19.198;2023-05-14T13:21:56;3;3;3
68713;PMS7003;55690;51.566;19.198;2023-05-14T13:26:02;4;4;3
68713;PMS7003;55690;51.566;19.198;2023-05-14T13:30:08;2;2;2
68713;PMS7003;55690;51.566;19.198;2023-05-14T13:34:14;0;0;0
68713;PMS7003;55690;51.566;19.198;2023-05-14T13:38:20;0;0;0
68713;PMS7003;55690;51.566;19.198;2023-05-14T13:42:26;2;2;2
68713;PMS7003;55690;51.566;19.198;2023-05-14T13:46:32;0;0;0
68713;PMS7003;55690;51.566;19.198;2023-05-14T13:50:39;1;1;1
68713;PMS7003;55690;51.566;19.198;2023-05-14T13:54:45;0;0;0
68713;PMS7003;55690;51.566;19.198;2023-05-14T13:58:51;1;1;1
68713;PMS7003;55690;51.566;19.198;2023-05-14T14:02:57;1;1;1
68713;PMS7003;55690;51.566;19.198;2023-05-14T14:07:03;2;2;1
68713;PMS7003;55690;51.566;19.198;2023-05-14T14:11:09;1;1;1
68713;PMS7003;55690;51.566;19.198;2023-05-14T14:15:16;3;2;2
68713;PMS7003;55690;51.566;19.198;2023-05-14T14:19:22;3;1;1
68713;PMS7003;55690;51.566;19.198;2023-05-14T14:23:28;0;0;0
68713;PMS7003;55690;51.566;19.198;2023-05-14T14:27:34;0;0;0
68713;PMS7003;55690;51.566;19.198;2023-05-14T14:31:40;4;3;2
68713;PMS7003;55690;51.566;19.198;2023-05-14T14:35:46;0;0;0
68713;PMS7003;55690;51.566;19.198;2023-05-14T14:39:53;1;1;0
68713;PMS7003;55690;51.566;19.198;2023-05-14T14:44:01;2;2;0
68713;PMS7003;55690;51.566;19.198;2023-05-14T14:52:22;3;1;1
68713;PMS7003;55690;51.566;19.198;2023-05-14T14:56:25;2;2;2
68713;PMS7003;55690;51.566;19.198;2023-05-14T15:00:26;2;2;2
68713;PMS7003;55690;51.566;19.198;2023-05-14T15:04:32;2;2;2
68713;PMS7003;55690;51.566;19.198;2023-05-14T15:08:38;1;1;1
68713;PMS7003;55690;51.566;19.198;2023-05-14T15:12:44;1;1;1
68713;PMS7003;55690;51.566;19.198;2023-05-14T15:16:50;1;1;1
68713;PMS7003;55690;51.566;19.198;2023-05-14T15:20:57;6;6;5
68713;PMS7003;55690;51.566;19.198;2023-05-14T15:25:03;2;2;2
68713;PMS7003;55690;51.566;19.198;2023-05-14T15:29:09;2;2;2
68713;PMS7003;55690;51.566;19.198;2023-05-14T15:33:15;3;0;0
68713;PMS7003;55690;51.566;19.198;2023-05-14T15:37:24;1;1;1
68713;PMS7003;55690;51.566;19.198;2023-05-14T15:41:27;3;2;2
68713;PMS7003;55690;51.566;19.198;2023-05-14T15:45:34;1;1;1
68713;PMS7003;55690;51.566;19.198;2023-05-14T15:49:40;2;2;2
68713;PMS7003;55690;51.566;19.198;2023-05-14T15:53:46;3;3;3
68713;PMS7003;55690;51.566;19.198;2023-05-14T15:57:52;4;2;2
68713;PMS7003;55690;51.566;19.198;2023-05-14T16:01:58;2;2;2
68713;PMS7003;55690;51.566;19.198;2023-05-14T16:06:04;5;5;4
68713;PMS7003;55690;51.566;19.198;2023-05-14T16:10:11;5;5;4
68713;PMS7003;55690;51.566;19.198;2023-05-14T16:14:17;3;3;3
68713;PMS7003;55690;51.566;19.198;2023-05-14T16:18:23;4;4;4
68713;PMS7003;55690;51.566;19.198;2023-05-14T16:22:29;2;2;2
68713;PMS7003;55690;51.566;19.198;2023-05-14T16:26:35;2;2;2
68713;PMS7003;55690;51.566;19.198;2023-05-14T16:30:41;3;3;2
68713;PMS7003;55690;51.566;19.198;2023-05-14T16:34:47;2;2;2
68713;PMS7003;55690;51.566;19.198;2023-05-14T16:38:54;3;3;3
68713;PMS7003;55690;51.566;19.198;2023-05-14T16:43:00;2;2;2
68713;PMS7003;55690;51.566;19.198;2023-05-14T16:47:06;4;4;3
68713;PMS7003;55690;51.566;19.198;2023-05-14T16:51:12;2;2;2
68713;PMS7003;55690;51.566;19.198;2023-05-14T16:55:18;4;4;4
68713;PMS7003;55690;51.566;19.198;2023-05-14T16:59:24;3;3;2
68713;PMS7003;55690;51.566;19.198;2023-05-14T17:03:31;5;5;4
68713;PMS7003;55690;51.566;19.198;2023-05-14T17:07:37;3;3;2
68713;PMS7003;55690;51.566;19.198;2023-05-14T17:11:43;3;3;2
68713;PMS7003;55690;51.566;19.198;2023-05-14T17:15:49;5;4;2
68713;PMS7003;55690;51.566;19.198;2023-05-14T17:19:55;3;3;3
68713;PMS7003;55690;51.566;19.198;2023-05-14T17:24:01;6;5;4
68713;PMS7003;55690;51.566;19.198;2023-05-14T17:28:08;6;6;5
68713;PMS7003;55690;51.566;19.198;2023-05-14T17:32:14;6;3;3
68713;PMS7003;55690;51.566;19.198;2023-05-14T17:36:20;3;2;2
68713;PMS7003;55690;51.566;19.198;2023-05-14T17:40:26;4;4;3
68713;PMS7003;55690;51.566;19.198;2023-05-14T17:44:32;7;4;4
68713;PMS7003;55690;51.566;19.198;2023-05-14T17:48:38;5;5;4
68713;PMS7003;55690;51.566;19.198;2023-05-14T17:52:45;6;6;4
68713;PMS7003;55690;51.566;19.198;2023-05-14T17:56:51;6;6;5
68713;PMS7003;55690;51.566;19.198;2023-05-14T18:00:57;6;5;5
68713;PMS7003;55690;51.566;19.198;2023-05-14T18:05:03;8;8;5
68713;PMS7003;55690;51.566;19.198;2023-05-14T18:09:09;7;7;6
68713;PMS7003;55690;51.566;19.198;2023-05-14T18:13:16;5;5;5
68713;PMS7003;55690;51.566;19.198;2023-05-14T18:17:22;14;7;6
68713;PMS7003;55690;51.566;19.198;2023-05-14T18:21:28;8;5;4
68713;PMS7003;55690;51.566;19.198;2023-05-14T18:25:34;12;7;7
68713;PMS7003;55690;51.566;19.198;2023-05-14T18:29:40;11;7;5
68713;PMS7003;55690;51.566;19.198;2023-05-14T18:33:46;10;10;8
68713;PMS7003;55690;51.566;19.198;2023-05-14T18:37:55;8;8;7
68713;PMS7003;55690;51.566;19.198;2023-05-14T18:42:01;6;6;5
68713;PMS7003;55690;51.566;19.198;2023-05-14T18:46:07;11;5;4
68713;PMS7003;55690;51.566;19.198;2023-05-14T18:50:13;4;4;3
68713;PMS7003;55690;51.566;19.198;2023-05-14T18:54:20;5;5;5
68713;PMS7003;55690;51.566;19.198;2023-05-14T18:58:26;6;6;5
68713;PMS7003;55690;51.566;19.198;2023-05-14T19:02:32;6;6;6
68713;PMS7003;55690;51.566;19.198;2023-05-14T19:06:38;4;4;4
68713;PMS7003;55690;51.566;19.198;2023-05-14T19:10:44;6;6;5
68713;PMS7003;55690;51.566;19.198;2023-05-14T19:14:50;13;10;6
68713;PMS7003;55690;51.566;19.198;2023-05-14T19:18:56;9;6;5
68713;PMS7003;55690;51.566;19.198;2023-05-14T19:23:03;6;5;4
68713;PMS7003;55690;51.566;19.198;2023-05-14T19:27:09;5;5;4
68713;PMS7003;55690;51.566;19.198;2023-05-14T19:31:16;6;6;4
68713;PMS7003;55690;51.566;19.198;2023-05-14T19:35:21;8;8;7
68713;PMS7003;55690;51.566;19.198;2023-05-14T19:39:27;8;8;8
68713;PMS7003;55690;51.566;19.198;2023-05-14T19:43:33;11;6;5
68713;PMS7003;55690;51.566;19.198;2023-05-14T19:47:40;5;5;5
68713;PMS7003;55690;51.566;19.198;2023-05-14T19:51:46;9;9;8
68713;PMS7003;55690;51.566;19.198;2023-05-14T19:55:52;5;5;4
68713;PMS7003;55690;51.566;19.198;2023-05-14T19:59:58;6;5;5
68713;PMS7003;55690;51.566;19.198;2023-05-14T20:04:04;7;6;5
68713;PMS7003;55690;51.566;19.198;2023-05-14T20:08:10;3;3;3
68713;PMS7003;55690;51.566;19.198;2023-05-14T20:12:17;5;5;5
68713;PMS7003;55690;51.566;19.198;2023-05-14T20:16:23;6;6;6
68713;PMS7003;55690;51.566;19.198;2023-05-14T20:20:29;15;10;8
68713;PMS7003;55690;51.566;19.198;2023-05-14T20:24:35;11;8;6
68713;PMS7003;55690;51.566;19.198;2023-05-14T20:28:41;8;8;6
68713;PMS7003;55690;51.566;19.198;2023-05-14T20:32:47;11;11;8
68713;PMS7003;55690;51.566;19.198;2023-05-14T20:36:54;10;8;5
68713;PMS7003;55690;51.566;19.198;2023-05-14T20:41:00;8;6;6
68713;PMS7003;55690;51.566;19.198;2023-05-14T20:45:06;9;7;6
68713;PMS7003;55690;51.566;19.198;2023-05-14T20:49:12;9;9;7
68713;PMS7003;55690;51.566;19.198;2023-05-14T20:53:18;14;9;8
68713;PMS7003;55690;51.566;19.198;2023-05-14T20:57:24;13;10;8
68713;PMS7003;55690;51.566;19.198;2023-05-14T21:01:31;11;11;9
68713;PMS7003;55690;51.566;19.198;2023-05-14T21:05:37;12;10;8
68713;PMS7003;55690;51.566;19.198;2023-05-14T21:09:43;12;9;7
68713;PMS7003;55690;51.566;19.198;2023-05-14T21:13:51;8;8;6
68713;PMS7003;55690;51.566;19.198;2023-05-14T21:17:55;10;8;7
68713;PMS7003;55690;51.566;19.198;2023-05-14T21:22:01;8;7;6
68713;PMS7003;55690;51.566;19.198;2023-05-14T21:26:08;8;7;5
68713;PMS7003;55690;51.566;19.198;2023-05-14T21:30:14;8;8;6
68713;PMS7003;55690;51.566;19.198;2023-05-14T21:34:20;9;8;6
68713;PMS7003;55690;51.566;19.198;2023-05-14T21:38:26;9;8;7
68713;PMS7003;55690;51.566;19.198;2023-05-14T21:42:32;7;7;6
68713;PMS7003;55690;51.566;19.198;2023-05-14T21:46:38;7;7;6
68713;PMS7003;55690;51.566;19.198;2023-05-14T21:50:45;5;5;4
68713;PMS7003;55690;51.566;19.198;2023-05-14T21:54:51;9;8;7
68713;PMS7003;55690;51.566;19.198;2023-05-14T21:58:57;7;7;5
68713;PMS7003;55690;51.566;19.198;2023-05-14T22:03:03;8;8;7
68713;PMS7003;55690;51.566;19.198;2023-05-14T22:07:09;6;5;5
68713;PMS7003;55690;51.566;19.198;2023-05-14T22:11:15;5;5;5
68713;PMS7003;55690;51.566;19.198;2023-05-14T22:15:22;5;5;5
68713;PMS7003;55690;51.566;19.198;2023-05-14T22:19:28;6;6;5
68713;PMS7003;55690;51.566;19.198;2023-05-14T22:23:34;6;6;6
68713;PMS7003;55690;51.566;19.198;2023-05-14T22:27:40;8;5;5
68713;PMS7003;55690;51.566;19.198;2023-05-14T22:31:46;4;4;3
68713;PMS7003;55690;51.566;19.198;2023-05-14T22:35:52;5;5;5
68713;PMS7003;55690;51.566;19.198;2023-05-14T22:39:59;4;4;4
68713;PMS7003;55690;51.566;19.198;2023-05-14T22:44:05;19;7;7
68713;PMS7003;55690;51.566;19.198;2023-05-14T22:48:11;6;6;5
68713;PMS7003;55690;51.566;19.198;2023-05-14T22:52:17;10;7;6
68713;PMS7003;55690;51.566;19.198;2023-05-14T22:56:23;6;5;4
68713;PMS7003;55690;51.566;19.198;2023-05-14T23:00:29;14;6;5
68713;PMS7003;55690;51.566;19.198;2023-05-14T23:04:36;6;5;5
68713;PMS7003;55690;51.566;19.198;2023-05-14T23:08:42;7;4;3
68713;PMS7003;55690;51.566;19.198;2023-05-14T23:12:48;16;7;6
68713;PMS7003;55690;51.566;19.198;2023-05-14T23:16:54;8;5;5
68713;PMS7003;55690;51.566;19.198;2023-05-14T23:21:00;8;5;4
68713;PMS7003;55690;51.566;19.198;2023-05-14T23:25:07;5;5;5
68713;PMS7003;55690;51.566;19.198;2023-05-14T23:29:13;7;7;5
68713;PMS7003;55690;51.566;19.198;2023-05-14T23:33:19;3;2;1
68713;PMS7003;55690;51.566;19.198;2023-05-14T23:37:25;6;5;4
68713;PMS7003;55690;51.566;19.198;2023-05-14T23:41:31;16;6;5
68713;PMS7003;55690;51.566;19.198;2023-05-14T23:45:37;10;6;5
68713;PMS7003;55690;51.566;19.198;2023-05-14T23:49:43;2;2;2
68713;PMS7003;55690;51.566;19.198;2023-05-14T23:53:50;6;6;6
68713;PMS7003;55690;51.566;19.198;2023-05-14T23:57:57;10;4;4
